• Join FlightAware (Why Join?)
  • Login
  • US Flag 
10:41PM EDT


 

Airport Tracker/Info


-or-


 

Live Flight TrackerFlight Track Log ✈ SKW4633 ✈ 05-Aug-2014 ✈ CYVR - KSLC

Flight Track Log - Related Links

Times and Time Zones

All times are in EDT time to prevent confusion due to time zone crossing. See the SKW4633 flight status page for this flight to view local times or setup timezone preferences in your user account.

Time Position Orientation Groundspeed Altitude Reporting Facility
EDT Latitude Longitude Course Direction KTS MPH feet Rate Location/Type
09:02PM 49.1667 -123.1333 117° Southeast 160 184 2,000  Level Vancouver Center
09:03PM 49.1333 -123.0333 117° Southeast 220 253 4,000 2,100 Climbing Vancouver Center
09:04PM 49.0667 -122.9833 154° Southeast 270 311 6,200 2,700 Climbing Vancouver Center
09:05PM 49.0000 -123.0333 206° Southwest 270 311 9,400 2,460 Climbing Vancouver Center
09:06PM 48.9500 -123.0833 213° Southwest 270 311 11,200 1,800 Climbing Vancouver Center
09:07PM 48.8500 -123.0667 174° South 320 368 13,000 2,040 Climbing Vancouver Center
09:08PM 48.7667 -123.0167 158° South 340 391 15,300 1,920 Climbing Vancouver Center
09:09PM 48.6667 -122.9667 162° South 360 414 16,900 1,620 Climbing Vancouver Center
09:10PM 48.5833 -122.8667 142° Southeast 370 426 18,600 1,680 Climbing Vancouver Center
09:11PM 48.5467 -122.7792 122° Southeast 397 457 19,900 1,620 Climbing Seattle Center
09:12PM 48.4733 -122.6494 130° Southeast 401 461 21,500 1,440 Climbing Seattle Center
09:13PM 48.3964 -122.5164 131° Southeast 417 480 22,900 1,440 Climbing Seattle Center
09:14PM 48.3194 -122.3786 130° Southeast 427 491 24,500 1,320 Climbing Seattle Center
09:15PM 48.2411 -122.2431 131° Southeast 428 493 25,700 1,080 Climbing Seattle Center
09:16PM 48.1597 -122.1025 131° Southeast 441 507 26,800 1,080 Climbing Seattle Center
09:17PM 48.0778 -121.9608 131° Southeast 444 511 27,900 960 Climbing Seattle Center
09:18PM 47.9939 -121.8178 131° Southeast 450 518 28,800 780 Climbing Seattle Center
09:19PM 47.9086 -121.6711 131° Southeast 461 531 29,600 780 Climbing Seattle Center
09:20PM 47.8208 -121.5217 131° Southeast 471 542 30,400 1,080 Climbing Seattle Center
09:21PM 47.7331 -121.3764 132° Southeast 473 544 31,800 1,320 Climbing Seattle Center
09:22PM 47.6492 -121.2344 131° Southeast 462 532 33,200 1,200 Climbing Seattle Center
09:23PM 47.5647 -121.0969 132° Southeast 456 525 34,300 780 Climbing Seattle Center
09:24PM 47.4819 -120.9581 131° Southeast 450 518 34,900 600 Climbing Seattle Center
09:25PM 47.3892 -120.8047 132° Southeast 456 525 35,600 660 Climbing Seattle Center
09:26PM 47.3042 -120.6664 132° Southeast 458 527 36,300 780 Climbing Seattle Center
09:27PM 47.2200 -120.5294 132° Southeast 457 526 37,300 780 Climbing Seattle Center
09:28PM 47.1383 -120.3947 132° Southeast 448 516 38,000 540 Climbing Seattle Center
09:29PM 47.0561 -120.2625 132° Southeast 443 510 38,500 480 Climbing Seattle Center
09:30PM 46.9703 -120.1228 132° Southeast 442 509 39,000 240 Climbing Seattle Center
09:31PM 46.8919 -119.9992 133° Southeast 439 505 39,000  Level Seattle Center
09:32PM 46.7906 -119.8392 133° Southeast 445 512 39,000  Level Seattle Center
09:33PM 46.7167 -119.7211 132° Southeast 453 521 39,000  Level Seattle Center
09:34PM 46.6300 -119.5856 133° Southeast 454 522 39,000  Level Seattle Center
09:35PM 46.5439 -119.4492 133° Southeast 455 524 39,000  Level Seattle Center
09:36PM 46.4400 -119.2875 133° Southeast 458 527 39,000  Level Seattle Center
09:37PM 46.3536 -119.1539 133° Southeast 456 525 39,000  Level Seattle Center
09:38PM 46.2656 -119.0192 133° Southeast 459 528 39,000  Level Seattle Center
09:39PM 46.1781 -118.8836 133° Southeast 459 528 39,000  Level Seattle Center
09:40PM 46.0892 -118.7503 134° Southeast 460 529 39,000  Level Seattle Center
09:41PM 46.0019 -118.6161 133° Southeast 460 529 39,000  Level Seattle Center
09:42PM 45.9233 -118.4972 134° Southeast 460 529 39,000  Level Seattle Center
09:44PM 45.8183 -118.3397 134° Southeast 459 528 39,000  Level Seattle Center
09:45PM 45.7306 -118.2083 134° Southeast 459 528 39,000  Level Seattle Center
09:46PM 45.6492 -118.0886 134° Southeast 459 528 39,000  Level Seattle Center
09:47PM 45.5614 -117.9561 133° Southeast 458 527 39,000  Level Seattle Center
09:48PM 45.4742 -117.8286 134° Southeast 456 525 39,000  Level Seattle Center
09:49PM 45.3869 -117.6992 134° Southeast 454 522 39,000  Level Seattle Center
09:50PM 45.3000 -117.5731 134° Southeast 450 518 39,000  Level Seattle Center
09:51PM 45.1969 -117.4242 134° Southeast 443 510 39,000  Level Seattle Center
09:51PM 45.1339 -117.3339 135° Southeast 439 505 39,000  Level Salt Lake Center
09:52PM 45.0492 -117.2103 134° Southeast 439 505 39,000  Level Salt Lake Center
09:53PM 44.9642 -117.0875 134° Southeast 439 505 39,000  Level Salt Lake Center
09:54PM 44.8775 -116.9650 135° Southeast 439 505 39,000  Level Salt Lake Center
09:56PM 44.7922 -116.8436 135° Southeast 439 505 39,000  Level Salt Lake Center
09:57PM 44.7067 -116.7214 135° Southeast 439 505 39,000  Level Salt Lake Center
09:58PM 44.6042 -116.5767 135° Southeast 439 505 39,000  Level Salt Lake Center
09:59PM 44.5186 -116.4567 135° Southeast 439 505 39,000  Level Salt Lake Center
10:00PM 44.4336 -116.3400 136° Southeast 438 504 39,000  Level Salt Lake Center
10:01PM 44.3483 -116.2250 136° Southeast 438 504 39,000  Level Salt Lake Center
10:02PM 44.2514 -116.0844 134° Southeast 431 496 39,000  Level Salt Lake Center
10:03PM 44.1692 -115.9708 135° Southeast 422 486 39,000  Level Salt Lake Center
10:04PM 44.0867 -115.8583 136° Southeast 420 483 39,000  Level Salt Lake Center
10:05PM 44.0039 -115.7447 135° Southeast 419 482 39,000  Level Salt Lake Center
10:06PM 43.9214 -115.6314 135° Southeast 419 482 39,000  Level Salt Lake Center
10:07PM 43.8378 -115.5181 136° Southeast 419 482 39,000  Level Salt Lake Center
10:08PM 43.7533 -115.4031 135° Southeast 423 487 39,000  Level Salt Lake Center
10:09PM 43.6683 -115.2883 136° Southeast 426 490 39,000  Level Salt Lake Center
10:10PM 43.5653 -115.1497 136° Southeast 430 495 39,000  Level Salt Lake Center
10:11PM 43.4778 -115.0339 136° Southeast 433 498 39,000  Level Salt Lake Center
10:12PM 43.3897 -114.9172 136° Southeast 436 502 39,000  Level Salt Lake Center
10:13PM 43.3017 -114.8019 136° Southeast 437 503 39,000  Level Salt Lake Center
10:14PM 43.2144 -114.6858 136° Southeast 438 504 39,000  Level Salt Lake Center
10:15PM 43.1253 -114.5681 136° Southeast 443 510 39,000  Level Salt Lake Center
10:16PM 43.0358 -114.4517 136° Southeast 444 511 39,000  Level Salt Lake Center
10:17PM 42.9281 -114.3125 137° Southeast 444 511 39,000 -180 Level Salt Lake Center
10:18PM 42.8486 -114.2072 136° Southeast 445 512 38,700 -720 Descending Salt Lake Center
10:19PM 42.7606 -114.0969 137° Southeast 434 499 37,600 -1,020 Descending Salt Lake Center
10:20PM 42.6778 -113.9894 136° Southeast 416 479 36,700 -1,080 Descending Salt Lake Center
10:21PM 42.5733 -113.8558 137° Southeast 426 490 35,500 -1,320 Descending Salt Lake Center
10:22PM 42.4897 -113.7439 135° Southeast 426 490 34,100 -1,740 Descending Salt Lake Center
10:23PM 42.4058 -113.6344 136° Southeast 425 489 32,000 -2,100 Descending Salt Lake Center
10:24PM 42.3256 -113.5261 135° Southeast 415 478 29,900 -1,500 Descending Salt Lake Center
10:25PM 42.2483 -113.4217 135° Southeast 401 461 29,000 -480 Descending Salt Lake Center
10:26PM 42.1706 -113.3189 136° Southeast 395 455 29,000  Level Salt Lake Center
10:27PM 42.0919 -113.2156 136° Southeast 395 455 29,000 -840 Level Salt Lake Center
10:28PM 42.0147 -113.1150 136° Southeast 392 451 27,400 -1,800 Descending Salt Lake Center
10:29PM 41.9250 -112.9967 136° Southeast 379 436 25,400 -1,860 Descending Salt Lake Center
10:30PM 41.8500 -112.8997 136° Southeast 379 436 23,600 -1,800 Descending Salt Lake Center
10:31PM 41.7750 -112.8039 136° Southeast 378 435 21,800 -1,620 Descending Salt Lake Center
10:32PM 41.7033 -112.7108 136° Southeast 364 419 20,300 -1,680 Descending Salt Lake Center
10:33PM 41.6556 -112.6364 131° Southeast 354 407 18,900 -1,920 Descending Salt Lake Center
10:33PM 41.6300 -112.6189 153° Southeast 361 415 18,400 -1,740 Descending Salt Lake Center
10:34PM 41.5558 -112.5217 136° Southeast 374 430 16,600 -1,500 Descending Salt Lake Center
10:35PM 41.4797 -112.4347 139° Southeast 378 435 15,600 -1,080 Descending Salt Lake Center
10:36PM 41.3856 -112.3692 152° Southeast 352 405 14,600 -1,020 Descending Salt Lake Center
10:37PM 41.3011 -112.3094 152° Southeast 339 390 13,600 -1,020 Descending Salt Lake Center
10:38PM 41.2856 -112.3053 169° South 343 395 13,400 -1,020 Descending Salt Lake Center
10:39PM 41.2114 -112.2456 149° Southeast 341 392 12,500 -1,020 Descending Salt Lake Center
10:40PM 41.1219 -112.1836 152° Southeast 339 390 11,400 -660 Descending Salt Lake Center
10:41PM 41.0111 -112.1342 161° South 317 365 11,000 -240 Descending Salt Lake Center
10:42PM 40.9586 -112.1217 170° South 279 321 11,000  Level Salt Lake Center
10:42PM 40.9367 -112.1167 170° South 251 289 11,000  Level Salt Lake Center
10:43PM 40.8914 -112.1083 172° South 247 284 11,000  Level Salt Lake Center
10:43PM 40.8706 -112.1078 179° South 237 273 11,000 -240 Level Salt Lake Center
10:44PM 40.8119 -112.0992 174° South 240 276 10,800 -900 Descending Salt Lake Center
10:45PM 40.7497 -112.0950 177° South 237 273 9,400 -960 Descending Salt Lake Center
10:46PM 40.6839 -112.0889 176° South 236 272 9,000 -240 Descending Salt Lake Center
10:47PM 40.6242 -112.0808 174° South 233 268 9,000  Level Salt Lake Center
10:47PM 40.6181 -112.0767 153° Southeast 234 269 9,000 -120 Level Salt Lake Center
10:48PM 40.5678 -112.0483 157° South 225 259 8,900 -360 Descending Salt Lake Center
10:49PM 40.6000 -111.9836 57° Northeast 223 257 8,300 -1,140 Descending Salt Lake Center
10:50PM 40.6569 -111.9850 359° North 200 230 6,800 -1,440 Descending Salt Lake Center
10:51PM 40.7181 -111.9886 357° North 185 213 5,400 -1,020 Descending Salt Lake Center
10:52PM 40.7589 -111.9936 355° North 152 175 4,600 -600 Descending Salt Lake Center
10:53PM 40.7892 -111.9975 354° North 117 135 4,200 -420 Descending Salt Lake Center